Time;durP1;ratioP1;P1;durP2;ratioP2;P2;SDS_P1;SDS_P2;PMS_P1;PMS_P2;Temp;Humidity;BMP_temperature;BMP_pressure;BME280_temperature;BME280_humidity;BME280_pressure;Samples;Min_cycle;Max_cycle;Signal;HPM_P1;HPM_P2
2023/06/12 00:00:05;;;;;;;9.15;3.05;;;21.20;60.90;;;;;;5124811;27;45397;-70
2023/06/12 00:02:32;;;;;;;4.07;2.72;;;21.20;60.30;;;;;;5122386;27;45326;-71
2023/06/12 00:04:59;;;;;;;4.20;2.75;;;21.20;59.30;;;;;;5119825;27;46551;-71
2023/06/12 00:07:28;;;;;;;6.45;2.90;;;21.20;58.40;;;;;;5120323;27;45288;-71
2023/06/12 00:09:55;;;;;;;5.95;3.03;;;21.20;59.70;;;;;;5118031;27;45479;-72
2023/06/12 00:12:23;;;;;;;5.10;3.22;;;21.20;58.30;;;;;;5114202;27;45404;-71
2023/06/12 00:14:50;;;;;;;4.50;2.80;;;21.20;58.50;;;;;;5118948;27;45230;-71
2023/06/12 00:17:17;;;;;;;6.28;3.05;;;21.20;58.80;;;;;;5119869;27;45422;-71
2023/06/12 00:19:43;;;;;;;5.35;3.05;;;21.30;58.80;;;;;;5117842;27;45385;-70
2023/06/12 00:22:10;;;;;;;4.63;3.10;;;21.20;57.80;;;;;;5111460;27;45603;-71
2023/06/12 00:24:37;;;;;;;4.50;2.80;;;21.30;58.90;;;;;;5117952;27;46589;-71
2023/06/12 00:27:04;;;;;;;4.63;3.00;;;21.30;58.70;;;;;;5118537;27;45493;-71
2023/06/12 00:29:32;;;;;;;3.85;2.90;;;21.20;58.00;;;;;;5125919;27;45301;-71
2023/06/12 00:31:59;;;;;;;4.40;2.70;;;21.20;57.40;;;;;;5123707;27;45532;-72
2023/06/12 00:34:26;;;;;;;9.07;2.95;;;21.20;57.80;;;;;;5126392;27;45317;-71
2023/06/12 00:36:53;;;;;;;6.97;3.00;;;21.20;58.00;;;;;;5125472;27;45773;-71
2023/06/12 00:39:20;;;;;;;5.78;3.10;;;21.10;58.10;;;;;;5126966;27;45319;-70
2023/06/12 00:41:46;;;;;;;7.53;3.13;;;21.10;58.50;;;;;;5126170;27;45494;-72
2023/06/12 00:44:13;;;;;;;7.60;3.70;;;21.00;59.10;;;;;;5126222;27;46550;-71
2023/06/12 00:46:41;;;;;;;7.72;2.97;;;20.90;59.30;;;;;;5126548;27;45375;-70
2023/06/12 00:49:08;;;;;;;3.75;2.95;;;20.90;59.40;;;;;;5128907;27;45333;-72
2023/06/12 00:51:35;;;;;;;3.80;2.50;;;20.90;58.30;;;;;;5125033;27;45395;-71
2023/06/12 00:54:02;;;;;;;18.30;3.28;;;20.90;59.20;;;;;;5126014;27;47339;-70
2023/06/12 00:56:29;;;;;;;7.43;2.97;;;20.80;58.90;;;;;;5117535;27;45391;-71
2023/06/12 00:58:55;;;;;;;7.47;3.10;;;20.80;58.50;;;;;;5116861;27;45370;-71
2023/06/12 01:01:25;;;;;;;5.38;3.00;;;20.70;58.70;;;;;;5123530;27;45301;-73
2023/06/12 01:03:56;;;;;;;4.72;2.80;;;20.70;59.60;;;;;;5125738;27;47351;-71
2023/06/12 01:06:30;;;;;;;6.00;3.00;;;20.70;60.50;;;;;;5116094;27;45772;-71
2023/06/12 01:09:04;;;;;;;7.22;3.40;;;20.60;61.20;;;;;;5125064;27;45373;-71
2023/06/12 01:11:33;;;;;;;4.15;3.00;;;20.60;60.00;;;;;;5115527;27;45317;-71
2023/06/12 01:14:02;;;;;;;4.95;2.72;;;20.50;60.10;;;;;;5115420;27;47382;-70
2023/06/12 01:16:28;;;;;;;8.38;3.20;;;20.40;60.10;;;;;;5118386;27;45559;-70
2023/06/12 01:18:57;;;;;;;5.32;3.20;;;20.40;60.40;;;;;;5118276;27;45465;-71
2023/06/12 01:21:29;;;;;;;8.13;2.80;;;20.40;61.70;;;;;;5114651;27;45489;-70
2023/06/12 01:24:13;;;;;;;4.93;3.10;;;20.40;59.70;;;;;;5124097;27;46523;-71
2023/06/12 01:26:58;;;;;;;5.03;2.92;;;20.50;59.40;;;;;;5122478;27;45427;-70
2023/06/12 01:29:50;;;;;;;8.57;2.65;;;20.50;60.10;;;;;;5125840;27;45271;-71
2023/06/12 01:32:20;;;;;;;6.95;3.22;;;20.40;61.40;;;;;;5121292;27;45533;-72
2023/06/12 01:34:51;;;;;;;4.00;3.10;;;20.30;61.90;;;;;;5117118;27;45413;-72
2023/06/12 01:37:26;;;;;;;6.22;3.10;;;20.20;63.20;;;;;;5122444;27;46046;-70
2023/06/12 01:39:58;;;;;;;9.30;3.25;;;20.00;63.80;;;;;;5118612;27;45563;-71
2023/06/12 01:42:27;;;;;;;4.18;3.13;;;20.00;64.30;;;;;;5121798;27;45427;-72
2023/06/12 01:44:54;;;;;;;5.57;2.92;;;19.90;64.30;;;;;;5112032;27;48164;-71
2023/06/12 01:47:23;;;;;;;5.22;3.20;;;19.90;64.90;;;;;;5123329;27;45391;-70
2023/06/12 01:49:49;;;;;;;4.95;3.25;;;19.80;65.10;;;;;;5123761;27;45387;-71
2023/06/12 01:52:16;;;;;;;7.95;3.42;;;19.80;65.00;;;;;;5124899;27;45645;-71
2023/06/12 01:54:45;;;;;;;4.57;2.97;;;19.80;65.30;;;;;;5122373;27;45448;-71
2023/06/12 01:57:12;;;;;;;6.07;3.60;;;19.80;65.50;;;;;;5113232;27;45317;-71
2023/06/12 01:59:39;;;;;;;8.90;3.47;;;19.70;65.00;;;;;;5117052;27;45462;-71
2023/06/12 02:02:06;;;;;;;5.55;3.33;;;19.80;64.80;;;;;;5119002;27;45250;-71
2023/06/12 02:04:34;;;;;;;5.32;3.30;;;19.80;64.70;;;;;;5117384;27;46247;-71
2023/06/12 02:07:02;;;;;;;7.78;3.33;;;19.80;65.60;;;;;;5117271;27;45381;-71
2023/06/12 02:09:28;;;;;;;5.53;3.45;;;19.80;64.20;;;;;;5112560;27;45305;-70
2023/06/12 02:11:55;;;;;;;7.32;4.38;;;19.70;64.20;;;;;;5121151;27;45596;-72
2023/06/12 02:14:23;;;;;;;7.28;3.28;;;19.70;63.40;;;;;;5121666;27;45437;-70
2023/06/12 02:16:53;;;;;;;10.23;3.83;;;19.70;63.30;;;;;;5104859;27;45447;-70
2023/06/12 02:19:22;;;;;;;6.43;3.95;;;19.70;63.60;;;;;;5122228;27;45347;-70
2023/06/12 02:21:50;;;;;;;8.63;4.20;;;19.70;63.40;;;;;;5117633;27;45244;-71
2023/06/12 02:24:17;;;;;;;9.00;3.53;;;19.70;62.40;;;;;;5118090;27;46543;-70
2023/06/12 02:26:44;;;;;;;4.63;3.20;;;19.80;62.50;;;;;;5112324;27;45402;-71
2023/06/12 02:29:13;;;;;;;7.47;3.47;;;19.80;62.20;;;;;;5118389;27;45479;-70
2023/06/12 02:31:40;;;;;;;7.13;3.00;;;19.80;61.30;;;;;;5118195;27;45490;-70
2023/06/12 02:34:07;;;;;;;7.75;3.67;;;19.90;60.90;;;;;;5111726;27;46623;-71
2023/06/12 02:36:39;;;;;;;10.90;3.65;;;20.00;60.30;;;;;;5124186;27;45369;-70
2023/06/12 02:39:07;;;;;;;5.13;3.30;;;20.00;60.20;;;;;;5124333;27;45441;-70
2023/06/12 02:41:34;;;;;;;8.32;3.70;;;20.10;59.60;;;;;;5121418;27;45397;-70
2023/06/12 02:44:01;;;;;;;6.00;3.30;;;20.10;61.00;;;;;;5123836;27;46213;-70
2023/06/12 02:46:28;;;;;;;4.18;3.17;;;20.10;60.00;;;;;;5123550;27;45201;-70
2023/06/12 02:48:54;;;;;;;4.72;3.20;;;20.00;59.90;;;;;;5124631;27;45468;-71
2023/06/12 02:51:21;;;;;;;7.32;3.13;;;20.10;59.30;;;;;;5124586;27;45281;-70
2023/06/12 02:53:48;;;;;;;7.63;3.30;;;20.10;59.10;;;;;;5117031;27;47503;-71
2023/06/12 02:56:16;;;;;;;4.10;3.20;;;20.10;59.60;;;;;;5123142;27;45372;-71
2023/06/12 02:58:44;;;;;;;7.82;3.25;;;20.10;59.60;;;;;;5124053;27;45261;-70
2023/06/12 03:01:11;;;;;;;5.28;3.10;;;20.00;58.90;;;;;;5124423;27;45377;-71
2023/06/12 03:03:39;;;;;;;6.22;3.20;;;20.00;58.90;;;;;;5115843;27;45466;-70
2023/06/12 03:06:06;;;;;;;5.80;3.42;;;20.10;60.70;;;;;;5123086;27;45464;-72
2023/06/12 03:08:33;;;;;;;10.50;3.33;;;20.10;60.40;;;;;;5124476;27;45377;-70
2023/06/12 03:11:00;;;;;;;6.55;3.35;;;20.00;58.70;;;;;;5115141;27;45437;-70
2023/06/12 03:13:28;;;;;;;5.13;3.33;;;20.00;59.00;;;;;;5116762;27;45476;-71
2023/06/12 03:15:55;;;;;;;7.55;3.25;;;20.10;59.30;;;;;;5113713;27;45281;-70
2023/06/12 03:18:21;;;;;;;4.15;3.05;;;20.00;59.50;;;;;;5113248;27;45367;-70
2023/06/12 03:20:48;;;;;;;5.80;3.45;;;20.00;59.30;;;;;;5117371;27;45403;-70
2023/06/12 03:23:16;;;;;;;7.88;3.65;;;20.00;59.60;;;;;;5122056;27;47539;-70
2023/06/12 03:25:42;;;;;;;9.20;3.65;;;20.00;60.00;;;;;;5119872;27;45404;-71
2023/06/12 03:28:09;;;;;;;5.90;3.30;;;20.00;60.50;;;;;;5123191;27;45380;-71
2023/06/12 03:30:37;;;;;;;5.93;3.58;;;20.00;60.30;;;;;;5123109;27;45482;-70
2023/06/12 03:33:04;;;;;;;6.10;3.92;;;19.90;60.40;;;;;;5107718;27;46087;-71
2023/06/12 03:35:31;;;;;;;5.90;3.55;;;20.00;60.10;;;;;;5117014;27;46537;-71
2023/06/12 03:37:58;;;;;;;15.43;3.92;;;19.90;60.50;;;;;;5113349;27;45536;-70
2023/06/12 03:40:25;;;;;;;6.70;3.55;;;19.90;60.50;;;;;;5118926;27;45226;-71
2023/06/12 03:42:51;;;;;;;5.22;3.42;;;19.90;60.30;;;;;;5118913;27;45553;-70
2023/06/12 03:45:18;;;;;;;7.43;3.90;;;19.90;60.30;;;;;;5122368;27;45439;-70
2023/06/12 03:47:46;;;;;;;6.90;3.53;;;19.90;61.30;;;;;;5107798;27;45465;-71
2023/06/12 03:50:13;;;;;;;8.70;3.60;;;19.90;60.80;;;;;;5116815;27;45547;-71
2023/06/12 03:52:40;;;;;;;4.32;3.13;;;19.80;61.10;;;;;;5118507;27;47495;-71
2023/06/12 03:55:07;;;;;;;6.45;3.88;;;19.80;61.80;;;;;;5114741;27;45402;-72
2023/06/12 03:57:34;;;;;;;9.00;3.30;;;19.80;63.10;;;;;;5119478;27;45328;-70
2023/06/12 04:00:01;;;;;;;8.35;3.83;;;19.80;61.10;;;;;;5118229;27;45717;-71
2023/06/12 04:02:28;;;;;;;9.40;3.50;;;19.80;61.20;;;;;;5121627;27;45471;-71
2023/06/12 04:04:56;;;;;;;5.97;3.30;;;19.80;61.70;;;;;;5121857;27;45380;-71
2023/06/12 04:07:26;;;;;;;8.82;3.47;;;19.80;61.80;;;;;;5119009;27;45507;-70
2023/06/12 04:09:52;;;;;;;6.57;3.40;;;19.80;61.20;;;;;;5116723;27;45570;-71
2023/06/12 04:12:19;;;;;;;4.55;3.30;;;19.80;62.20;;;;;;5117263;27;47977;-71
2023/06/12 04:14:46;;;;;;;9.88;3.63;;;19.80;62.60;;;;;;5113633;27;45564;-70
2023/06/12 04:17:13;;;;;;;6.38;3.85;;;19.80;63.40;;;;;;5114326;27;45341;-71
2023/06/12 04:19:40;;;;;;;8.48;3.60;;;19.80;63.30;;;;;;5121200;27;45376;-70
2023/06/12 04:22:12;;;;;;;9.00;3.60;;;20.10;63.50;;;;;;5120313;27;47222;-70
2023/06/12 04:24:42;;;;;;;10.00;3.63;;;20.30;62.50;;;;;;5110203;27;45410;-71
2023/06/12 04:27:09;;;;;;;6.25;3.40;;;20.50;63.20;;;;;;5122885;27;45303;-71
2023/06/12 04:29:37;;;;;;;5.75;3.42;;;20.60;62.60;;;;;;5121176;27;45202;-70
2023/06/12 04:32:06;;;;;;;7.90;3.70;;;20.60;62.60;;;;;;5114702;27;45499;-72
2023/06/12 04:34:39;;;;;;;4.93;2.92;;;20.70;63.10;;;;;;5118405;27;45498;-71
2023/06/12 04:37:09;;;;;;;7.88;3.33;;;20.60;63.00;;;;;;5115617;27;45390;-71
2023/06/12 04:39:36;;;;;;;4.70;3.33;;;20.70;63.50;;;;;;5117034;27;45289;-71
2023/06/12 04:42:05;;;;;;;5.07;3.08;;;20.60;63.50;;;;;;5119351;27;47288;-71
2023/06/12 04:44:34;;;;;;;4.82;3.13;;;20.60;63.00;;;;;;5113657;27;45426;-71
2023/06/12 04:47:04;;;;;;;3.65;2.90;;;20.50;62.60;;;;;;5121044;27;45443;-71
2023/06/12 04:49:32;;;;;;;5.55;3.20;;;20.60;63.40;;;;;;5122061;27;45439;-70
2023/06/12 04:52:00;;;;;;;5.78;3.10;;;20.70;63.80;;;;;;5122118;27;46478;-71
2023/06/12 04:54:30;;;;;;;4.60;2.78;;;20.70;63.40;;;;;;5111139;27;45279;-70
2023/06/12 04:56:57;;;;;;;6.07;3.40;;;20.80;63.40;;;;;;5116223;27;45422;-71
2023/06/12 04:59:24;;;;;;;8.40;3.40;;;20.90;63.60;;;;;;5113340;27;45509;-72
2023/06/12 05:01:51;;;;;;;6.10;3.35;;;20.30;64.00;;;;;;5116682;27;45428;-71
2023/06/12 05:04:18;;;;;;;6.32;3.22;;;20.10;65.30;;;;;;5118175;27;45773;-71
2023/06/12 05:06:45;;;;;;;5.60;3.80;;;20.10;65.90;;;;;;5113665;27;45387;-70
2023/06/12 05:09:12;;;;;;;6.25;3.55;;;20.10;65.20;;;;;;5114863;27;45496;-70
2023/06/12 05:11:40;;;;;;;8.15;3.63;;;20.20;65.70;;;;;;5118390;27;47197;-72
2023/06/12 05:14:07;;;;;;;8.25;3.72;;;20.20;65.70;;;;;;5121295;27;45750;-71
2023/06/12 05:16:34;;;;;;;7.25;3.70;;;20.20;64.90;;;;;;5123399;27;45430;-72
2023/06/12 05:19:01;;;;;;;5.45;3.30;;;20.30;64.40;;;;;;5116739;27;45584;-71
2023/06/12 05:21:28;;;;;;;5.18;3.33;;;20.40;65.30;;;;;;5125810;27;48301;-71
2023/06/12 05:23:55;;;;;;;8.50;3.80;;;20.40;65.40;;;;;;5124121;27;45766;-71
2023/06/12 05:26:23;;;;;;;6.85;2.97;;;20.40;65.40;;;;;;5116308;27;45412;-71
2023/06/12 05:28:51;;;;;;;9.38;3.97;;;20.40;65.20;;;;;;5124155;27;45440;-71
2023/06/12 05:31:18;;;;;;;9.32;3.70;;;20.40;65.10;;;;;;5121956;27;45462;-72
2023/06/12 05:33:44;;;;;;;9.98;3.67;;;20.50;65.10;;;;;;5123122;27;45252;-70
2023/06/12 05:36:11;;;;;;;8.18;3.75;;;20.60;65.20;;;;;;5125679;27;45428;-71
2023/06/12 05:38:38;;;;;;;7.22;3.70;;;20.60;64.50;;;;;;5120039;27;45225;-71
2023/06/12 05:41:05;;;;;;;8.57;3.40;;;20.60;64.40;;;;;;5119813;27;46526;-71
2023/06/12 05:43:32;;;;;;;8.82;3.47;;;20.60;64.50;;;;;;5121450;27;45429;-70
2023/06/12 05:46:00;;;;;;;5.43;3.47;;;20.60;64.30;;;;;;5121406;27;45533;-71
2023/06/12 05:48:27;;;;;;;8.75;4.13;;;20.60;64.40;;;;;;5121218;27;45435;-70
2023/06/12 05:50:54;;;;;;;14.50;3.88;;;20.60;64.50;;;;;;5117890;27;47400;-71
2023/06/12 05:53:20;;;;;;;4.38;3.30;;;20.70;65.00;;;;;;5123336;27;45483;-70
2023/06/12 05:55:47;;;;;;;11.10;4.32;;;20.70;64.70;;;;;;5117702;27;45467;-72
2023/06/12 05:58:14;;;;;;;6.78;3.42;;;20.70;64.60;;;;;;5123048;27;45439;-71
2023/06/12 06:00:43;;;;;;;5.10;3.72;;;20.80;65.00;;;;;;5122528;27;46300;-71
2023/06/12 06:03:12;;;;;;;5.85;3.60;;;20.80;64.80;;;;;;5122914;27;45356;-71
2023/06/12 06:05:40;;;;;;;8.52;3.50;;;20.90;65.10;;;;;;5124486;27;45324;-71
2023/06/12 06:08:07;;;;;;;7.40;4.07;;;21.00;65.20;;;;;;5125099;27;45252;-71
2023/06/12 06:10:34;;;;;;;5.25;3.08;;;21.10;64.90;;;;;;5124650;27;48016;-71
2023/06/12 06:13:01;;;;;;;5.32;2.90;;;21.20;65.20;;;;;;5122612;27;45429;-71
2023/06/12 06:15:27;;;;;;;6.70;3.17;;;21.20;65.40;;;;;;5123561;27;45326;-71
2023/06/12 06:17:55;;;;;;;5.13;3.30;;;21.20;66.70;;;;;;5125034;27;45325;-70
2023/06/12 06:20:23;;;;;;;7.20;3.50;;;21.30;65.60;;;;;;5122869;27;47520;-72
2023/06/12 06:22:50;;;;;;;5.78;3.30;;;21.30;65.40;;;;;;5124277;27;45505;-71
2023/06/12 06:25:17;;;;;;;4.65;3.42;;;21.30;65.30;;;;;;5122727;27;45765;-71
2023/06/12 06:27:44;;;;;;;5.18;3.63;;;21.30;65.70;;;;;;5117092;27;45398;-71
2023/06/12 06:30:11;;;;;;;4.35;2.88;;;21.40;65.40;;;;;;5120762;27;47265;-71
2023/06/12 06:32:38;;;;;;;5.25;3.63;;;21.40;65.30;;;;;;5116622;27;45217;-70
2023/06/12 06:35:05;;;;;;;6.22;3.60;;;21.40;65.50;;;;;;5123414;27;45558;-70
2023/06/12 06:37:33;;;;;;;9.88;3.50;;;21.40;66.40;;;;;;5124777;27;45410;-71
2023/06/12 06:40:00;;;;;;;7.50;3.55;;;21.40;65.60;;;;;;5113182;27;45568;-71
2023/06/12 06:42:28;;;;;;;6.40;3.35;;;21.50;65.40;;;;;;5120122;27;45423;-71
2023/06/12 06:44:55;;;;;;;5.88;3.70;;;21.50;66.00;;;;;;5124101;27;45347;-71
2023/06/12 06:47:22;;;;;;;5.63;3.50;;;21.50;65.90;;;;;;5111892;27;45554;-71
2023/06/12 06:49:49;;;;;;;4.43;3.22;;;21.50;66.40;;;;;;5119717;27;45332;-71
2023/06/12 06:52:17;;;;;;;6.18;3.20;;;21.50;66.60;;;;;;5120561;27;45394;-71
2023/06/12 06:54:45;;;;;;;6.65;3.35;;;21.60;66.60;;;;;;5118076;27;45338;-71
2023/06/12 06:57:12;;;;;;;5.38;3.20;;;21.60;66.50;;;;;;5114993;27;45485;-71
2023/06/12 06:59:38;;;;;;;7.15;3.03;;;21.60;67.00;;;;;;5121920;27;46308;-71
2023/06/12 07:02:06;;;;;;;10.50;3.42;;;21.60;67.30;;;;;;5114193;27;45518;-72
2023/06/12 07:04:32;;;;;;;4.65;3.05;;;21.70;67.30;;;;;;5120878;27;45414;-71
2023/06/12 07:06:59;;;;;;;8.57;3.53;;;21.70;67.10;;;;;;5113762;27;45561;-70
2023/06/12 07:09:26;;;;;;;9.60;3.55;;;21.70;67.50;;;;;;5122435;27;45411;-71
2023/06/12 07:11:54;;;;;;;7.28;3.63;;;21.70;67.20;;;;;;5115501;27;45524;-70
2023/06/12 07:14:21;;;;;;;6.28;3.47;;;21.80;66.90;;;;;;5117587;27;45371;-70
2023/06/12 07:16:47;;;;;;;4.68;3.20;;;21.70;66.90;;;;;;5113373;27;45263;-71
2023/06/12 07:19:14;;;;;;;4.72;3.20;;;21.80;67.40;;;;;;5118708;27;45475;-70
2023/06/12 07:21:41;;;;;;;5.00;3.40;;;21.80;67.10;;;;;;5119816;27;45511;-71
2023/06/12 07:24:08;;;;;;;7.85;2.95;;;21.80;66.80;;;;;;5123296;27;45390;-72
2023/06/12 07:26:34;;;;;;;5.32;3.30;;;21.80;67.00;;;;;;5115477;27;45528;-71
2023/06/12 07:29:03;;;;;;;4.47;3.15;;;21.80;67.00;;;;;;5122059;27;48205;-71
2023/06/12 07:31:30;;;;;;;5.63;3.35;;;21.80;66.80;;;;;;5115106;27;45489;-71
2023/06/12 07:33:57;;;;;;;8.75;3.97;;;21.90;67.00;;;;;;5112087;27;45460;-71
2023/06/12 07:36:23;;;;;;;4.97;3.03;;;21.90;66.30;;;;;;5121404;27;45563;-71
2023/06/12 07:38:50;;;;;;;5.57;4.07;;;21.90;66.60;;;;;;5123093;27;47560;-71
2023/06/12 07:41:17;;;;;;;6.10;3.80;;;21.90;64.80;;;;;;5121939;27;45695;-70
2023/06/12 07:43:44;;;;;;;5.90;3.70;;;21.90;65.90;;;;;;5122560;27;45402;-71
2023/06/12 07:46:15;;;;;;;6.43;3.55;;;21.90;65.70;;;;;;5113620;27;45418;-71
2023/06/12 07:48:41;;;;;;;4.68;3.28;;;21.90;66.30;;;;;;5122361;27;45532;-71
2023/06/12 07:51:08;;;;;;;4.95;2.65;;;21.90;66.10;;;;;;5121544;27;45481;-71
2023/06/12 07:53:35;;;;;;;5.00;3.50;;;21.90;66.90;;;;;;5113647;27;45319;-71
2023/06/12 07:56:02;;;;;;;4.68;3.40;;;21.90;66.50;;;;;;5122008;27;45464;-71
2023/06/12 07:58:31;;;;;;;4.75;3.08;;;21.90;67.50;;;;;;5121944;27;46515;-71
2023/06/12 08:00:57;;;;;;;4.88;3.13;;;21.90;66.20;;;;;;5121848;27;45452;-71
2023/06/12 08:03:26;;;;;;;5.97;3.67;;;22.00;66.30;;;;;;5123648;27;45343;-71
2023/06/12 08:05:53;;;;;;;3.42;2.58;;;22.00;66.80;;;;;;5119747;27;45742;-72
2023/06/12 08:08:20;;;;;;;4.70;2.42;;;22.00;67.30;;;;;;5119530;27;47083;-71
2023/06/12 08:10:47;;;;;;;5.55;3.38;;;22.00;67.50;;;;;;5121772;27;45559;-71
2023/06/12 08:13:13;;;;;;;3.42;2.63;;;22.00;66.60;;;;;;5122389;27;45447;-71
2023/06/12 08:15:40;;;;;;;6.90;3.40;;;22.00;67.30;;;;;;5116147;27;45529;-72
2023/06/12 08:18:07;;;;;;;10.65;3.70;;;22.00;66.30;;;;;;5122211;27;48071;-71
2023/06/12 08:20:35;;;;;;;4.10;2.75;;;22.00;66.20;;;;;;5121468;27;45415;-71
2023/06/12 08:23:02;;;;;;;3.00;2.25;;;22.00;67.70;;;;;;5118505;27;45548;-70
2023/06/12 08:25:29;;;;;;;4.60;3.00;;;22.00;67.50;;;;;;5119176;27;45457;-71
2023/06/12 08:27:57;;;;;;;3.50;2.63;;;22.10;67.10;;;;;;5114349;27;47609;-70
2023/06/12 08:30:23;;;;;;;4.30;2.70;;;22.10;67.20;;;;;;5110198;27;45959;-71
2023/06/12 08:32:50;;;;;;;5.47;2.50;;;22.10;66.80;;;;;;5122126;27;45261;-71
2023/06/12 08:35:17;;;;;;;2.30;1.90;;;22.00;68.20;;;;;;5116998;27;45301;-71
2023/06/12 08:37:45;;;;;;;14.93;4.10;;;22.00;68.00;;;;;;5112288;27;47539;-70
2023/06/12 08:40:12;;;;;;;3.83;2.40;;;22.00;68.40;;;;;;5112148;27;45224;-70
2023/06/12 08:42:44;;;;;;;3.60;2.20;;;22.00;67.80;;;;;;5112674;27;45405;-71
2023/06/12 08:45:16;;;;;;;2.88;2.28;;;22.00;68.00;;;;;;5116738;27;45275;-71
2023/06/12 08:47:47;;;;;;;3.22;2.28;;;22.00;67.60;;;;;;5120456;27;46449;-71
2023/06/12 08:50:14;;;;;;;3.75;2.83;;;22.00;68.30;;;;;;5115466;27;45342;-70
2023/06/12 08:52:42;;;;;;;3.05;2.40;;;22.00;68.40;;;;;;5125358;27;45516;-70
2023/06/12 08:55:13;;;;;;;3.00;2.40;;;22.00;68.40;;;;;;5113636;27;45315;-71
2023/06/12 08:57:41;;;;;;;6.10;2.42;;;22.00;68.40;;;;;;5120002;27;46643;-71
2023/06/12 09:00:11;;;;;;;4.68;2.70;;;22.00;68.50;;;;;;5123099;27;45534;-71
2023/06/12 09:02:43;;;;;;;3.28;2.38;;;22.00;68.50;;;;;;5114696;27;45486;-70
2023/06/12 09:05:16;;;;;;;2.35;1.75;;;22.00;68.60;;;;;;5124147;27;45573;-70
2023/06/12 09:07:46;;;;;;;2.90;2.20;;;22.00;68.30;;;;;;5117082;27;48533;-70
2023/06/12 09:10:15;;;;;;;2.55;2.00;;;22.00;68.10;;;;;;5125718;27;45356;-71
2023/06/12 09:12:43;;;;;;;4.07;1.88;;;22.00;68.70;;;;;;5121290;27;45364;-71
2023/06/12 09:15:16;;;;;;;2.60;2.13;;;22.10;68.50;;;;;;5122248;27;45426;-70
2023/06/12 09:17:43;;;;;;;11.10;2.20;;;22.10;68.60;;;;;;5118879;27;46615;-71
2023/06/12 09:20:16;;;;;;;3.17;2.10;;;22.10;68.00;;;;;;5124478;27;45362;-70
2023/06/12 09:22:43;;;;;;;2.17;1.80;;;22.10;68.50;;;;;;5121341;27;45539;-70
2023/06/12 09:25:10;;;;;;;4.18;2.00;;;22.10;69.10;;;;;;5118590;27;45508;-71
2023/06/12 09:27:45;;;;;;;2.38;1.90;;;22.10;68.50;;;;;;5122765;27;46325;-70
2023/06/12 09:30:13;;;;;;;3.65;2.05;;;22.10;69.20;;;;;;5123998;27;45241;-71
2023/06/12 09:32:43;;;;;;;2.92;2.10;;;22.10;69.20;;;;;;5126206;27;45630;-70
2023/06/12 09:35:12;;;;;;;3.05;2.20;;;22.10;69.00;;;;;;5127751;27;45334;-73
2023/06/12 09:37:39;;;;;;;2.05;1.65;;;22.10;69.00;;;;;;5125038;27;46554;-72
2023/06/12 09:40:10;;;;;;;2.38;1.80;;;22.20;69.10;;;;;;5121037;27;45387;-70
2023/06/12 09:42:37;;;;;;;2.97;1.92;;;22.10;68.90;;;;;;5120087;27;45353;-71
2023/06/12 09:45:17;;;;;;;3.05;1.90;;;22.10;69.00;;;;;;5115485;27;45199;-70
2023/06/12 09:47:45;;;;;;;2.88;2.20;;;22.10;69.50;;;;;;5122717;27;46654;-70
2023/06/12 09:50:12;;;;;;;1.70;1.50;;;22.10;69.50;;;;;;5124108;27;45424;-70
2023/06/12 09:52:41;;;;;;;3.05;1.88;;;22.10;70.00;;;;;;5115346;27;45490;-70
2023/06/12 09:55:10;;;;;;;3.00;2.20;;;22.10;70.10;;;;;;5123810;27;45366;-71
2023/06/12 09:57:39;;;;;;;2.35;1.95;;;22.10;69.80;;;;;;5118156;27;46359;-71
2023/06/12 10:00:11;;;;;;;2.00;1.73;;;22.10;70.10;;;;;;5120104;27;45303;-71
2023/06/12 10:02:41;;;;;;;2.00;1.77;;;22.10;70.30;;;;;;5123769;27;45465;-72
2023/06/12 10:05:16;;;;;;;2.28;1.73;;;22.10;70.50;;;;;;5114795;27;45580;-70
2023/06/12 10:07:48;;;;;;;2.35;1.95;;;22.10;70.30;;;;;;5115569;27;47903;-71
2023/06/12 10:10:15;;;;;;;2.95;1.80;;;22.10;70.60;;;;;;5113689;27;45310;-71
2023/06/12 10:12:43;;;;;;;2.10;1.65;;;22.10;70.70;;;;;;5115843;27;45320;-70
2023/06/12 10:15:10;;;;;;;2.90;1.70;;;22.10;70.60;;;;;;5122601;27;45422;-70
2023/06/12 10:17:39;;;;;;;2.13;1.65;;;22.10;70.70;;;;;;5123864;27;46394;-70
2023/06/12 10:20:10;;;;;;;2.63;1.88;;;22.10;70.80;;;;;;5121677;27;46463;-72
2023/06/12 10:22:37;;;;;;;1.70;1.58;;;22.10;70.70;;;;;;5115740;27;45419;-71
2023/06/12 10:25:05;;;;;;;2.35;1.90;;;22.10;70.80;;;;;;5115140;27;45316;-71
2023/06/12 10:27:32;;;;;;;2.05;1.60;;;22.10;70.70;;;;;;5113138;27;45485;-70
2023/06/12 10:30:01;;;;;;;2.55;1.95;;;22.10;70.90;;;;;;5110136;27;45645;-71
2023/06/12 10:32:31;;;;;;;1.90;1.70;;;22.10;70.70;;;;;;5112433;27;45501;-71
2023/06/12 10:35:01;;;;;;;2.35;1.75;;;22.10;70.50;;;;;;5117845;27;45405;-71
2023/06/12 10:37:30;;;;;;;2.67;2.13;;;22.10;70.80;;;;;;5121251;27;47570;-70
2023/06/12 10:40:12;;;;;;;4.05;1.80;;;22.00;70.90;;;;;;5123930;27;45613;-71
2023/06/12 10:42:44;;;;;;;2.20;1.65;;;22.10;70.80;;;;;;5118537;27;45449;-70
2023/06/12 10:45:18;;;;;;;2.55;2.03;;;22.10;70.90;;;;;;5121884;27;45256;-71
2023/06/12 10:48:10;;;;;;;3.10;1.75;;;22.10;70.90;;;;;;5124206;27;45357;-71
2023/06/12 10:50:42;;;;;;;1.83;1.50;;;22.10;70.70;;;;;;5119737;27;45438;-70
2023/06/12 10:53:11;;;;;;;1.85;1.60;;;22.10;70.80;;;;;;5123452;27;45429;-70
2023/06/12 10:55:39;;;;;;;2.03;1.80;;;22.10;70.80;;;;;;5123514;27;45509;-70
2023/06/12 10:58:07;;;;;;;1.70;1.60;;;22.10;70.50;;;;;;5116149;27;47464;-70
2023/06/12 11:00:36;;;;;;;2.13;1.73;;;22.10;70.20;;;;;;5122809;27;46239;-71
2023/06/12 11:03:05;;;;;;;2.80;1.70;;;22.10;70.10;;;;;;5116333;27;45367;-70
2023/06/12 11:05:33;;;;;;;2.10;1.80;;;22.10;70.00;;;;;;5119049;27;45616;-71
2023/06/12 11:08:02;;;;;;;2.38;1.60;;;22.20;70.00;;;;;;5111247;27;46685;-71
2023/06/12 11:10:30;;;;;;;1.70;1.40;;;22.10;70.20;;;;;;5122379;27;45438;-72
2023/06/12 11:12:57;;;;;;;2.28;1.65;;;22.10;70.20;;;;;;5123284;27;45416;-71
2023/06/12 11:15:25;;;;;;;2.33;1.80;;;22.10;70.20;;;;;;5114371;27;45406;-70
2023/06/12 11:17:52;;;;;;;2.17;1.60;;;22.10;70.20;;;;;;5119099;27;46026;-71
2023/06/12 11:20:20;;;;;;;1.42;1.33;;;22.10;70.10;;;;;;5115728;27;45423;-71
2023/06/12 11:22:47;;;;;;;2.40;1.65;;;22.10;70.30;;;;;;5124023;27;45412;-70
2023/06/12 11:25:17;;;;;;;1.95;1.50;;;22.10;70.50;;;;;;5122819;27;45275;-71
2023/06/12 11:27:44;;;;;;;2.35;1.63;;;22.20;70.50;;;;;;5115264;27;46676;-70
2023/06/12 11:30:11;;;;;;;2.92;1.80;;;22.10;70.40;;;;;;5123366;27;45775;-71
2023/06/12 11:32:39;;;;;;;2.20;1.63;;;22.10;70.40;;;;;;5112003;27;45452;-71
2023/06/12 11:35:09;;;;;;;1.92;1.70;;;22.10;70.20;;;;;;5124524;27;45450;-71
2023/06/12 11:37:37;;;;;;;2.28;1.40;;;22.10;70.30;;;;;;5124925;27;46204;-71
2023/06/12 11:40:09;;;;;;;2.08;1.58;;;22.10;70.30;;;;;;5124827;27;45278;-71
2023/06/12 11:42:39;;;;;;;1.92;1.67;;;22.10;70.50;;;;;;5105136;27;45540;-71
2023/06/12 11:45:10;;;;;;;2.25;1.67;;;22.10;70.40;;;;;;5113817;27;45388;-71
2023/06/12 11:47:38;;;;;;;1.60;1.50;;;22.20;70.40;;;;;;5118117;27;47213;-70
2023/06/12 11:50:07;;;;;;;1.70;1.60;;;22.20;70.30;;;;;;5114951;27;45282;-70
2023/06/12 11:52:35;;;;;;;1.58;1.42;;;22.20;70.40;;;;;;5125526;27;45343;-70
2023/06/12 11:55:06;;;;;;;1.95;1.67;;;22.10;70.40;;;;;;5116694;27;45351;-71
2023/06/12 11:57:33;;;;;;;1.90;1.70;;;22.10;70.50;;;;;;5104581;27;47857;-70
2023/06/12 12:00:11;;;;;;;2.40;1.85;;;22.10;70.70;;;;;;5113556;27;45267;-71
2023/06/12 12:02:41;;;;;;;1.98;1.60;;;22.10;70.50;;;;;;5125260;27;45348;-70
2023/06/12 12:05:10;;;;;;;1.80;1.30;;;22.10;70.50;;;;;;5116897;27;45334;-71
2023/06/12 12:07:38;;;;;;;2.25;1.80;;;22.10;70.50;;;;;;5119325;27;46370;-70
2023/06/12 12:10:10;;;;;;;2.22;1.70;;;22.10;70.50;;;;;;5121517;27;45290;-71
2023/06/12 12:12:45;;;;;;;1.92;1.50;;;22.10;71.40;;;;;;5117861;27;45499;-71
2023/06/12 12:15:15;;;;;;;1.45;1.10;;;22.20;70.60;;;;;;5116648;27;45332;-70
2023/06/12 12:17:43;;;;;;;2.55;1.52;;;22.10;70.50;;;;;;5126086;27;48038;-70
2023/06/12 12:20:16;;;;;;;1.88;1.60;;;22.20;70.60;;;;;;5128023;27;45367;-70
2023/06/12 12:22:43;;;;;;;2.83;1.60;;;22.20;70.50;;;;;;5128924;27;45368;-70
2023/06/12 12:25:15;;;;;;;3.97;1.90;;;22.20;70.60;;;;;;5127262;27;45342;-70
2023/06/12 12:27:41;;;;;;;2.30;1.70;;;22.20;70.60;;;;;;5116223;27;47119;-70
2023/06/12 12:30:10;;;;;;;2.00;1.55;;;22.20;70.60;;;;;;5108252;27;45367;-71
2023/06/12 12:32:38;;;;;;;1.95;1.58;;;22.10;70.50;;;;;;5122282;27;45332;-70
2023/06/12 12:35:06;;;;;;;1.95;1.50;;;22.10;70.50;;;;;;5120058;27;45607;-70
2023/06/12 12:37:32;;;;;;;1.48;1.35;;;22.20;70.50;;;;;;5127803;27;47089;-71
2023/06/12 12:39:59;;;;;;;2.90;1.70;;;22.20;70.50;;;;;;5124501;27;45345;-71
2023/06/12 12:42:27;;;;;;;2.13;1.40;;;22.10;70.60;;;;;;5124671;27;45363;-70
2023/06/12 12:44:53;;;;;;;3.58;1.70;;;22.10;70.50;;;;;;5116072;27;45436;-71
2023/06/12 12:47:20;;;;;;;1.83;1.60;;;22.20;70.60;;;;;;5127970;27;48049;-70
2023/06/12 12:49:48;;;;;;;1.73;1.42;;;22.10;70.50;;;;;;5124996;27;45351;-71